Tiempo atmosférico en la estación meteorológica de Álora, Málaga (181 m.)



Fecha
DESCASC
Temp. máxima en grados centígrados (hora)
DESCASC
Temp. mínima en grados centígrados (hora)
DESCASC
Temp. media en grados centígrados
DESCASC
Racha de viento máxima en m/sg (hora)
DESCASC
Velocidad máxima media en intervalos de 10 minutos(hora)
DESCASC
Precipitaciones diarias en mm
DESCASC
Precipitaciones de 00:00 a 06:00 en mm
DESCASC
Precipitaciones de 06:00 a 12:00 en mm
DESCASC
Precipitaciones de 12:00 a 18:00 en mm
DESCASC
Precipitaciones de 18:00 a 24:00 en mm
DESCASC
22-04-2019 24.5 (16:10) 12.6 (05:20) 18.6 14.72 (18:20) 8.33 (18:20) 0 0 0 0 0
21-04-2019 22.3 (16:10) 10.7 (06:10) 16.5 8.33 (15:50) 5 (19:20) 0 0 0 0 0
20-04-2019 20.5 (15:50) 10.2 (03:30) 15.3 7.5 (08:20) 4.44 (06:40) 2.6 0 0 0 2.6
19-04-2019 20 (14:20) 9.8 (07:10) 14.9 11.11 (16:50) 7.78 (16:50) 1.4 0 0 0.6 0.8
18-04-2019 17.8 (14:30) 10.5 (00:00) 14.1 8.89 (11:00) 5.83 (15:40) 6.4 0.6 2 2.6 1.2
17-04-2019 19 (12:40) 12.7 (00:00) 15.8 14.17 (13:50) 10.28 (13:50) 0 0 0 0 0
16-04-2019 24.7 (16:30) 12.6 (00:00) 18.7 10.56 (14:40) 6.94 (14:30) 0 0 0 0 0
15-04-2019 29.8 (17:50) 12.3 (00:00) 21 11.67 (18:00) 7.78 (18:00) 0 0 0 0 0
14-04-2019 28.9 (15:40) 13.9 (00:00) 21.4 7.5 (16:50) 5 (18:00) 0 0 0 0 0
13-04-2019 26.8 (17:00) 10.9 (00:00) 18.8 8.89 (13:10) 5.56 (13:10) 0 0 0 0 0
12-04-2019 25.1 (17:10) 10.9 (00:00) 18 12.5 (15:00) 4.72 (19:00) 0 0 0 0 0
11-04-2019 22.9 (17:00) 10.9 (00:00) 16.9 12.22 (15:20) 6.39 (15:20) 0 0 0 0 0
10-04-2019 20 (18:10) 10.3 (00:00) 15.2 13.33 (18:20) 6.94 (17:30) 0 0 0 0 0
09-04-2019 20.4 (18:30) 10.8 (00:00) 15.6 12.22 (13:10) 6.94 (18:40) 0 0 0 0 0
08-04-2019 21.5 (15:10) 9.8 (00:00) 15.7 9.72 (16:50) 6.11 (16:10) 0.2 0 0 0.2 0
07-04-2019 17.2 (16:20) 10.1 (00:00) 13.7 8.89 (15:00) 4.72 (15:00) 3 0.4 1 0 1.6
06-04-2019 15.8 (17:20) 8.7 (00:00) 12.3 12.78 (14:20) 6.67 (14:20) 1.2 0 0.2 0.2 0.8
05-04-2019 16.2 (16:50) 9.8 (00:00) 13 17.78 (17:10) 9.44 (17:00) 7.2 0 3.2 4 0
04-04-2019 22.6 (16:40) 9.9 (00:00) 16.3 8.61 (18:40) 6.67 (18:40) 0 0 0 0 0
03-04-2019 24.9 (17:20) 11.1 (00:00) 18 12.22 (19:10) 6.94 (19:10) 0 0 0 0 0
02-04-2019 24.1 (17:20) 8.5 (00:00) 16.3 6.39 (17:30) 3.33 (17:30) 0 0 0 0 0
01-04-2019 18.5 (16:30) 10.9 (00:00) 14.7 6.67 (12:50) 4.72 (12:50) 0.2 0 0 0.2 0
31-03-2019 21.2 (17:20) 12.1 (00:00) 16.7 8.33 (18:40) 6.39 (18:30) 9.2 4.2 3 0 2
30-03-2019 17.3 (14:00) 12.4 (00:00) 14.8 13.89 (14:10) 9.17 (14:20) 0 0 0 0 0
29-03-2019 16.6 (14:30) 9.4 (00:00) 13 11.94 (12:00) 7.5 (11:10) 0 0 0 0 0
28-03-2019 17.9 (12:50) 11.4 (00:00) 14.6 15.83 (14:20) 10 (14:20) 0 0 0 0 0
27-03-2019 18.7 (13:40) 12.3 (00:00) 15.5 14.17 (16:10) 8.33 (13:00) 0 0 0 0 0
26-03-2019 21.3 (12:50) 11.2 (00:00) 16.2 15.28 (12:10) 9.17 (14:00) 0 0 0 0 0
25-03-2019 20.7 (12:50) 9.3 (00:00) 15 13.89 (14:20) 8.89 (14:40) 0 0 0 0 0

Gráficas

Temp. máximas Temp. mínimas Temp. medias Precipitaciones Rachas de viento máximas Velocidades máximas media en intervalos de 10 minutos

Datos horarios

Fecha y hora oficial Temperatura (ºC) Velocidad del viento (km/h) Dirección del viento Racha (km/h) Dirección de racha Precipitación (mm) Presión (hPa) Tendencia (hPa) Humedad (%)
2019-04-23 23:00:00 11.9 6 Noroeste 18 Noroeste 0 -- -- 63
2019-04-23 22:00:00 12.5 6 Noroeste 22 Oeste 0 -- -- 61
2019-04-23 21:00:00 14.1 15 Noroeste 35 Oeste 0 -- -- 51
2019-04-23 20:00:00 16.2 17 Oeste 32 Oeste 0 -- -- 42
2019-04-23 19:00:00 16.3 15 Noroeste 36 Oeste 0 -- -- 50
2019-04-23 18:00:00 17.6 12 Noroeste 37 Oeste 0 -- -- 44
2019-04-23 17:00:00 19 21 Noroeste 39 Oeste 0 -- -- 37
2019-04-23 16:00:00 18.7 22 Oeste 39 Oeste 0 -- -- 38
2019-04-23 15:00:00 17 10 Oeste 33 Oeste 0 -- -- 42
2019-04-23 14:00:00 16.5 15 Noroeste 36 Oeste 0 -- -- 48
2019-04-23 13:00:00 15.1 7 Noroeste 27 Oeste 0 -- -- 61
2019-04-23 12:00:00 12.1 10 Noroeste 26 Noroeste 0 -- -- 70
2019-04-23 11:00:00 11.1 6 Noroeste 40 Oeste 0 -- -- 75
2019-04-23 10:00:00 11.1 18 Noroeste 49 Noroeste 0 -- -- 81
2019-04-23 09:00:00 12.5 11 Noroeste 44 Oeste 2.4 -- -- 84
2019-04-23 08:00:00 15 6 Sudeste 12 Este 0 -- -- 66
2019-04-23 07:00:00 14.7 8 Nordeste 13 Este 0 -- -- 67
2019-04-23 06:00:00 14.2 7 Nordeste 12 Nordeste 0 -- -- 70
2019-04-23 05:00:00 14.4 3 Norte 8 Nordeste 0 -- -- 70
2019-04-23 04:00:00 14.5 3 Sudeste 13 Este 0 -- -- 68
2019-04-23 03:00:00 14.9 11 Este 14 Nordeste 0 -- -- 66
2019-04-23 02:00:00 14.8 6 Este 14 Este 0 -- -- 65
2019-04-23 01:00:00 15.5 11 Este 13 Este 0 -- -- 62
2019-04-23 00:00:00 16.7 2 Sudoeste 10 Sur 0 -- -- 56
2019-04-22 23:00:00 17.8 7 Sudoeste 23 Sudoeste 0 -- -- 50
2019-04-22 22:00:00 19 17 Oeste 38 Oeste 0 -- -- 43
2019-04-22 21:00:00 20 23 Oeste 37 Noroeste 0 -- -- 39
2019-04-22 20:00:00 22 21 Oeste 45 Oeste 0 -- -- 36
2019-04-22 19:00:00 23.6 22 Oeste 53 Oeste 0 -- -- 34
2019-04-22 18:00:00 23.5 24 Oeste 40 Noroeste 0 -- -- 38
2019-04-22 17:00:00 24.2 19 Noroeste 40 Oeste 0 -- -- 36
2019-04-22 16:00:00 23.6 12 Noroeste 30 Oeste 0 -- -- 41
2019-04-22 15:00:00 23.3 13 Noroeste 40 Oeste 0 -- -- 42
2019-04-22 14:00:00 21.6 11 Noroeste 45 Oeste 0 -- -- 46
2019-04-22 13:00:00 20.8 -- -- -- -- 0 -- -- 43
2019-04-22 12:00:00 19.5 12 Noroeste 33 Noroeste 0 -- -- 50
2019-04-22 11:00:00 17.8 16 Noroeste 30 Oeste 0 -- -- 56
2019-04-22 10:00:00 16.4 10 Noroeste 29 Oeste 0 -- -- 59
2019-04-22 09:00:00 13.7 16 Noroeste 31 Noroeste 0 -- -- 67
2019-04-22 08:00:00 13.1 18 Noroeste 33 Noroeste 0 -- -- 68
2019-04-22 07:00:00 13 14 Noroeste 30 Noroeste 0 -- -- 68
2019-04-22 06:00:00 12.9 10 Noroeste 28 Noroeste 0 -- -- 70
2019-04-22 05:00:00 12.8 8 Noroeste 27 Norte 0 -- -- 71
2019-04-22 04:00:00 13 10 Noroeste 24 Norte 0 -- -- 71
2019-04-22 03:00:00 13.3 8 Noroeste 21 Oeste 0 -- -- 71
2019-04-22 02:00:00 13.5 7 Noroeste 17 Oeste 0 -- -- 71
2019-04-22 01:00:00 14 6 Noroeste 19 Noroeste 0 -- -- 70
2019-04-22 00:00:00 14.5 6 Noroeste 16 Norte 0 -- -- 68
2019-04-21 23:00:00 14.8 6 Noroeste 13 Noroeste 0 -- -- 71
2019-04-21 22:00:00 15 4 Noroeste 21 Noroeste 0 -- -- 71
2019-04-21 21:00:00 15.2 12 Noroeste 22 Norte 0 -- -- 69
2019-04-21 20:00:00 15.5 10 Sudeste 30 Este 0 -- -- 78
2019-04-21 19:00:00 17.6 6 Sudeste 24 Noroeste 0 -- -- 65
2019-04-21 18:00:00 19.2 12 Noroeste 29 Oeste 0 -- -- 56
2019-04-21 17:00:00 22.3 11 Noroeste 29 Norte 0 -- -- 51
2019-04-21 16:00:00 21.7 18 Noroeste 30 Oeste 0 -- -- 53
2019-04-21 15:00:00 19.8 11 Oeste 24 Noroeste 0 -- -- 59
2019-04-21 14:00:00 18.9 9 Norte 22 Oeste 0 -- -- 60
2019-04-21 13:00:00 17.3 9 Noroeste 21 Oeste 0 -- -- 68
2019-04-21 12:00:00 16.4 10 Noroeste 22 Noroeste 0 -- -- 78
2019-04-21 11:00:00 14.1 9 Noroeste 24 Oeste 0 -- -- 81
2019-04-21 10:00:00 13.2 14 Noroeste 25 Oeste 0 -- -- 83
2019-04-21 09:00:00 12 8 Noroeste 17 Norte 0 -- -- 92
2019-04-21 08:00:00 11.3 9 Noroeste 19 Noroeste 0 -- -- 93
2019-04-21 07:00:00 11 8 Noroeste 15 Noroeste 0 -- -- 94
2019-04-21 06:00:00 10.8 2 Norte 6 Norte 0 -- -- 94
2019-04-21 05:00:00 11.2 2 Nordeste 6 Norte 0 -- -- 94
2019-04-21 04:00:00 11.6 6 Norte 8 Norte 0 -- -- 94
2019-04-21 03:00:00 11.8 0 Calma 5 Noroeste 0 -- -- 94
2019-04-21 02:00:00 12 4 Norte 6 Nordeste 0 -- -- 93
2019-04-21 01:00:00 12.5 2 Norte 6 Norte 0 -- -- 93
2019-04-21 00:00:00 12.9 4 Norte 8 Norte 0 -- -- 92
2019-04-20 23:00:00 13.4 2 Nordeste 8 Oeste 0.2 -- -- 91
2019-04-20 22:00:00 13.7 0 Calma 9 Oeste 1.2 -- -- 90
2019-04-20 21:00:00 14 6 Este 12 Este 1.2 -- -- 86
2019-04-20 20:00:00 15.7 7 Este 15 Sudeste 0 -- -- 74
2019-04-20 19:00:00 16.6 8 Este 15 Nordeste 0 -- -- 72
2019-04-20 18:00:00 18.2 7 Norte 25 Norte 0 -- -- 63
2019-04-20 17:00:00 19.4 0 Calma 14 Oeste 0 -- -- 51
2019-04-20 16:00:00 20.5 6 Sudoeste 15 Oeste 0 -- -- 49
2019-04-20 15:00:00 19.1 4 Norte 20 Noroeste 0 -- -- 56
2019-04-20 14:00:00 18.8 6 Norte 19 Norte 0 -- -- 56
2019-04-20 13:00:00 17.4 9 Noroeste 23 Noroeste 0 -- -- 65
2019-04-20 12:00:00 15.4 10 Noroeste 26 Oeste 0 -- -- 73
2019-04-20 11:00:00 13.4 8 Noroeste 22 Noroeste 0 -- -- 78
2019-04-20 10:00:00 12.3 9 Noroeste 24 Oeste 0 -- -- 81
2019-04-20 09:00:00 11.6 9 Noroeste 27 Noroeste 0 -- -- 83
2019-04-20 08:00:00 11.3 9 Noroeste 24 Oeste 0 -- -- 85
2019-04-20 07:00:00 11.4 13 Noroeste 27 Norte 0 -- -- 82
2019-04-20 06:00:00 10.9 10 Norte 20 Noroeste 0 -- -- 85
2019-04-20 05:00:00 10.7 12 Norte 20 Norte 0 -- -- 86
2019-04-20 04:00:00 10.7 4 Norte 16 Noroeste 0 -- -- 86
2019-04-20 03:00:00 10.4 2 Sudoeste 17 Noroeste 0 -- -- 87
2019-04-20 02:00:00 11.2 10 Norte 15 Norte 0 -- -- 83
2019-04-20 01:00:00 11.6 6 Norte 13 Norte 0 -- -- 81
2019-04-20 00:00:00 12.2 4 Norte 17 Norte 0 -- -- 82
2019-04-19 23:00:00 12.5 11 Norte 18 Noroeste 0 -- -- 84
2019-04-19 22:00:00 13.3 4 Norte 8 Noroeste 0 -- -- 86
2019-04-19 21:00:00 13.3 4 Noroeste 11 Norte 0.2 -- -- 87
2019-04-19 20:00:00 13.4 8 Norte 13 Noroeste 0.6 -- -- 87
2019-04-19 19:00:00 14.5 5 Oeste 11 Oeste 0 -- -- 79
2019-04-19 18:00:00 14.4 3 Norte 32 Nordeste 0.6 -- -- 79
2019-04-19 17:00:00 15.7 24 Nordeste 40 Nordeste 0 -- -- 64
2019-04-19 16:00:00 18.9 15 Sur 28 Sur 0 -- -- 52
2019-04-19 15:00:00 19.3 20 Sudeste 30 Sudeste 0 -- -- 53
2019-04-19 14:00:00 18.8 6 Noroeste 15 Noroeste 0 -- -- 52
2019-04-19 13:00:00 18.4 8 Noroeste 21 Noroeste 0 -- -- 51
2019-04-19 12:00:00 15.9 8 Noroeste 17 Oeste 0 -- -- 63
2019-04-19 11:00:00 14.8 9 Noroeste 18 Oeste 0 -- -- 71
2019-04-19 10:00:00 13.3 6 Noroeste 16 Noroeste 0 -- -- 75
2019-04-19 09:00:00 11.2 7 Norte 15 Norte 0 -- -- 83
2019-04-19 08:00:00 10 10 Norte 14 Noroeste 0 -- -- 82
2019-04-19 07:00:00 10 0 Calma 12 Norte 0 -- -- 84
2019-04-19 06:00:00 10.2 9 Norte 13 Norte 0 -- -- 85
2019-04-19 05:00:00 10.4 8 Noroeste 12 Norte 0 -- -- 84
2019-04-19 04:00:00 10.2 3 Norte 9 Noroeste 0 -- -- 84
2019-04-19 03:00:00 10.7 6 Noroeste 14 Norte 0 -- -- 82
2019-04-19 02:00:00 10.5 5 Nordeste 18 Norte 0 -- -- 83
2019-04-19 01:00:00 10 5 Norte 14 Oeste 0 -- -- 85
2019-04-19 00:00:00 10.5 4 Noroeste 12 Norte 0 -- -- 85
2019-04-18 23:00:00 11.2 6 Norte 10 Noroeste 0 -- -- 82
2019-04-18 22:00:00 11.5 5 Noroeste 11 Noroeste 0 -- -- 81
2019-04-18 21:00:00 12.3 5 Noroeste 18 Norte 0 -- -- 83
2019-04-18 20:00:00 13.1 10 Norte 26 Noroeste 1 -- -- 81
2019-04-18 19:00:00 15.3 3 Noroeste 8 Norte 0.2 -- -- 74
2019-04-18 18:00:00 13.8 3 Sudoeste 19 Norte 0 -- -- 84
2019-04-18 17:00:00 12.8 -- -- -- -- 1.4 -- -- 91
2019-04-18 16:00:00 13.1 17 Sur 28 Sur 1.2 -- -- 84
2019-04-18 15:00:00 17.2 6 Sur 15 Sudeste 0 -- -- 58
2019-04-18 14:00:00 17 6 Sudeste 19 Sudeste 0 -- -- 56
2019-04-18 13:00:00 16.2 9 Sur 17 Sur 0 -- -- 65
2019-04-18 12:00:00 14.8 3 Norte 27 Oeste 0 -- -- 66
2019-04-18 11:00:00 15.3 17 Noroeste 32 Oeste 0 -- -- 66
2019-04-18 10:00:00 14.1 2 Este 5 Este 0 -- -- 90
2019-04-18 09:00:00 12.9 2 Noroeste 7 Este 0 -- -- 93
2019-04-18 08:00:00 12.9 2 Norte 7 Sudoeste 0.4 -- -- 92
2019-04-18 07:00:00 13.2 6 Oeste 19 Oeste 1.6 -- -- 90
2019-04-18 06:00:00 13.7 4 Sur 13 Este 0.6 -- -- 89
2019-04-18 05:00:00 14.5 8 Este 12 Este 0 -- -- 85
2019-04-18 04:00:00 14.6 5 Noroeste 8 Noroeste 0 -- -- 83
2019-04-18 03:00:00 14.8 4 Este 11 Sudeste 0 -- -- 83
2019-04-18 02:00:00 14.9 5 Sudeste 13 Sudeste 0 -- -- 81
2019-04-18 01:00:00 15.5 2 Sur 12 Nordeste 0 -- -- 77
2019-04-18 00:00:00 15.8 5 Sudeste 8 Sur 0 -- -- 75
2019-04-17 23:00:00 15.7 2 Sur 9 Sur 0 -- -- 76
2019-04-17 22:00:00 16 0 Calma 14 Este 0 -- -- 73
2019-04-17 21:00:00 16.3 6 Nordeste 15 Sudeste 0 -- -- 72
2019-04-17 20:00:00 16.9 9 Sudeste 17 Sudeste 0 -- -- 69
2019-04-17 19:00:00 17.2 9 Sudeste 32 Sur 0 -- -- 66
2019-04-17 18:00:00 17.8 18 Sur 36 Sudeste 0 -- -- 64
2019-04-17 17:00:00 18 22 Sudeste 41 Sur 0 -- -- 63
2019-04-17 16:00:00 17.8 30 Sur 46 Sur 0 -- -- 67
2019-04-17 15:00:00 18.4 34 Sur 50 Sur 0 -- -- 65
2019-04-17 14:00:00 18.5 32 Sur 51 Sur 0 -- -- 66
2019-04-17 13:00:00 18.5 33 Sudeste 46 Sudeste 0 -- -- 63
2019-04-17 12:00:00 18.4 34 Sudeste 45 Sur 0 -- -- 63
2019-04-17 11:00:00 17.3 31 Sudeste 41 Sur 0 -- -- 68
2019-04-17 10:00:00 15.7 15 Sudeste 24 Sur 0 -- -- 73
2019-04-17 09:00:00 13.7 11 Sudeste 15 Sudeste 0 -- -- 75
2019-04-17 08:00:00 12.9 5 Este 10 Este 0 -- -- 79
2019-04-17 07:00:00 12.9 6 Sudeste 10 Este 0 -- -- 82
2019-04-17 06:00:00 13.7 5 Sudeste 17 Este 0 -- -- 84
2019-04-17 05:00:00 14.1 6 Este 13 Sudeste 0 -- -- 82
2019-04-17 04:00:00 14.4 9 Sudeste 21 Sur 0 -- -- 82
2019-04-17 03:00:00 14.9 8 Sudeste 22 Sur 0 -- -- 83
2019-04-17 02:00:00 14.8 12 Sudeste 22 Sur 0 -- -- 82
2019-04-17 01:00:00 15.2 14 Sur 32 Sur 0 -- -- 79
2019-04-17 00:00:00 15.4 14 Sur 21 Sur 0 -- -- 73
2019-04-16 23:00:00 15.8 11 Sudeste 15 Sudeste 0 -- -- 64
2019-04-16 22:00:00 17.1 8 Sudeste 12 Sur 0 -- -- 53
2019-04-16 21:00:00 18.8 8 Sur 24 Sur 0 -- -- 44
2019-04-16 20:00:00 21.3 12 Sudeste 28 Sudeste 0 -- -- 32
2019-04-16 19:00:00 22.9 15 Sudeste 31 Este 0 -- -- 29
2019-04-16 18:00:00 23.5 21 Sudeste 33 Sudeste 0 -- -- 27
2019-04-16 17:00:00 24.1 21 Sudeste 33 Sudeste 0 -- -- 31
2019-04-16 16:00:00 24.6 22 Sudeste 35 Sudeste 0 -- -- 30
2019-04-16 15:00:00 23.6 20 Sudeste 38 Sudeste 0 -- -- 39
2019-04-16 14:00:00 23.5 24 Sudeste 37 Sudeste 0 -- -- 39
2019-04-16 13:00:00 23.4 20 Sudeste 31 Sur 0 -- -- 41
2019-04-16 12:00:00 21.5 5 Sudeste 19 Sur 0 -- -- 48
2019-04-16 11:00:00 19.9 7 Noroeste 21 Noroeste 0 -- -- 56
2019-04-16 10:00:00 17.7 6 Noroeste 17 Oeste 0 -- -- 65
2019-04-16 09:00:00 14.7 9 Noroeste 21 Oeste 0 -- -- 73
2019-04-16 08:00:00 12.7 4 Noroeste 15 Norte 0 -- -- 80
2019-04-16 07:00:00 12.8 9 Noroeste 17 Oeste 0 -- -- 78
2019-04-16 06:00:00 13.6 7 Noroeste 13 Noroeste 0 -- -- 75
2019-04-16 05:00:00 14.5 3 Norte 13 Norte 0 -- -- 71
2019-04-16 04:00:00 15 7 Noroeste 14 Nordeste 0 -- -- 68
2019-04-16 03:00:00 15.8 10 Norte 26 Oeste 0 -- -- 65
2019-04-16 02:00:00 16.1 15 Noroeste 25 Oeste 0 -- -- 64
2019-04-16 01:00:00 16.2 14 Norte 23 Norte 0 -- -- 65
2019-04-16 00:00:00 17 10 Noroeste 27 Oeste 0 -- -- 64
2019-04-15 23:00:00 17.9 11 Noroeste 38 Noroeste 0 -- -- 61
2019-04-15 22:00:00 18.8 15 Noroeste 35 Noroeste 0 -- -- 57
2019-04-15 21:00:00 21.7 15 Oeste 28 Oeste 0 -- -- 41
2019-04-15 20:00:00 24.5 14 Oeste 34 Oeste 0 -- -- 29
2019-04-15 19:00:00 27 15 Noroeste 39 Oeste 0 -- -- 23
2019-04-15 18:00:00 29.5 28 Sudoeste 42 Sudoeste 0 -- -- 22
2019-04-15 17:00:00 28.7 21 Sudeste 35 Sur 0 -- -- 27
2019-04-15 16:00:00 28.6 21 Sur 31 Sur 0 -- -- 26
2019-04-15 15:00:00 27.9 15 Sudeste 29 Sur 0 -- -- 28
2019-04-15 14:00:00 26.7 14 Sudeste 26 Sur 0 -- -- 30
2019-04-15 13:00:00 25.6 16 Sur 23 Sudeste 0 -- -- 35
2019-04-15 12:00:00 23.1 9 Sudeste 15 Sudeste 0 -- -- 47
2019-04-15 11:00:00 19.4 4 Sudeste 8 Sudeste 0 -- -- 54
2019-04-15 10:00:00 16.5 0 Calma 5 Oeste 0 -- -- 65
2019-04-15 09:00:00 13 2 Noroeste 5 Oeste 0 -- -- 76
2019-04-15 08:00:00 12.5 0 Calma 8 Norte 0 -- -- 74
2019-04-15 07:00:00 13.2 0 Calma 4 Noroeste 0 -- -- 73
2019-04-15 06:00:00 13.8 4 Noroeste 5 Noroeste 0 -- -- 71
2019-04-15 05:00:00 14.5 2 Oeste 9 Oeste 0 -- -- 70
2019-04-15 04:00:00 15.7 6 Este 9 Este 0 -- -- 65
2019-04-15 03:00:00 16.4 0 Calma 3 Este 0 -- -- 63
2019-04-15 02:00:00 17.4 0 Calma 2 Noroeste 0 -- -- 56
2019-04-15 01:00:00 17.9 0 Calma 4 Sur 0 -- -- 55
2019-04-15 00:00:00 18.3 2 Sudeste 8 Sudeste 0 -- -- 54
2019-04-14 23:00:00 18.5 4 Sudeste 12 Sudeste 0 -- -- 54
2019-04-14 22:00:00 20 8 Sudeste 13 Sudeste 0 -- -- 50
2019-04-14 21:00:00 22.9 7 Sudeste 14 Sudeste 0 -- -- 44
2019-04-14 20:00:00 24.8 12 Sur 20 Sur 0 -- -- 38
2019-04-14 19:00:00 25.8 17 Sur 25 Sur 0 -- -- 36
2019-04-14 18:00:00 28.2 18 Sur 25 Sur 0 -- -- 33
2019-04-14 17:00:00 28.3 16 Sur 27 Sur 0 -- -- 32
2019-04-14 16:00:00 28.8 8 Sudeste 22 Sur 0 -- -- 31
2019-04-14 15:00:00 28 13 Sudeste 21 Sur 0 -- -- 31
2019-04-14 14:00:00 27.5 8 Sudoeste 18 Oeste 0 -- -- 31
2019-04-14 13:00:00 25.7 5 Sur 12 Sudeste 0 -- -- 32
2019-04-14 12:00:00 22.2 3 Noroeste 12 Noroeste 0 -- -- 38
2019-04-14 11:00:00 21.2 6 Noroeste 17 Oeste 0 -- -- 41
2019-04-14 10:00:00 18.2 5 Norte 17 Norte 0 -- -- 49
2019-04-14 09:00:00 14.8 2 Sudeste 16 Noroeste 0 -- -- 57
2019-04-14 08:00:00 14.1 4 Norte 23 Noroeste 0 -- -- 57
2019-04-14 07:00:00 14.9 14 Noroeste 22 Noroeste 0 -- -- 54
2019-04-14 06:00:00 14.9 15 Norte 23 Norte 0 -- -- 54
2019-04-14 05:00:00 15.1 12 Norte 21 Noroeste 0 -- -- 54
2019-04-14 04:00:00 15.5 10 Norte 17 Noroeste 0 -- -- 53
2019-04-14 03:00:00 15.2 7 Norte 16 Norte 0 -- -- 52
2019-04-14 02:00:00 15.5 9 Norte 14 Norte 0 -- -- 52
2019-04-14 01:00:00 16.3 5 Norte 15 Norte 0 -- -- 49
2019-04-14 00:00:00 17.6 8 Noroeste 19 Norte 0 -- -- 46
2019-04-13 23:00:00 18.3 7 Norte 15 Oeste 0 -- -- 40
2019-04-13 22:00:00 19.9 10 Noroeste 20 Oeste 0 -- -- 37
2019-04-13 21:00:00 21.3 8 Noroeste 22 Oeste 0 -- -- 33
2019-04-13 20:00:00 24.1 11 Noroeste 24 Oeste 0 -- -- 28
2019-04-13 19:00:00 25.8 13 Noroeste 30 Noroeste 0 -- -- 26
2019-04-13 18:00:00 26.5 8 Noroeste 27 Oeste 0 -- -- 25
2019-04-13 17:00:00 26.8 11 Noroeste 31 Oeste 0 -- -- 25
2019-04-13 16:00:00 26.1 8 Noroeste 23 Oeste 0 -- -- 26
2019-04-13 15:00:00 24.8 11 Oeste 24 Oeste 0 -- -- 28
2019-04-13 14:00:00 24.1 11 Oeste 32 Oeste 0 -- -- 30
2019-04-13 13:00:00 22.8 19 Oeste 31 Oeste 0 -- -- 29
2019-04-13 12:00:00 20.7 7 Noroeste 17 Oeste 0 -- -- 37
2019-04-13 11:00:00 18.6 8 Norte 15 Noroeste 0 -- -- 42
2019-04-13 10:00:00 14.7 3 Sur 9 Norte 0 -- -- 58
2019-04-13 09:00:00 12 3 Oeste 10 Noroeste 0 -- -- 61
2019-04-13 08:00:00 10.9 4 Norte 12 Noroeste 0 -- -- 62
2019-04-13 07:00:00 11 3 Sudeste 11 Norte 0 -- -- 62
2019-04-13 06:00:00 12.5 3 Norte 13 Norte 0 -- -- 57
2019-04-13 05:00:00 12.6 10 Norte 14 Norte 0 -- -- 57
2019-04-13 04:00:00 13.3 11 Norte 15 Norte 0 -- -- 54
2019-04-13 03:00:00 13.7 3 Noroeste 12 Nordeste 0 -- -- 53
2019-04-13 02:00:00 15 5 Noroeste 22 Noroeste 0 -- -- 48
2019-04-13 01:00:00 14.7 7 Noroeste 15 Noroeste 0 -- -- 49
2019-04-13 00:00:00 15.4 8 Norte 15 Norte 0 -- -- 44
2019-04-12 23:00:00 16.5 8 Norte 15 Noroeste 0 -- -- 40
2019-04-12 22:00:00 17.8 8 Norte 16 Norte 0 -- -- 37
2019-04-12 21:00:00 19.7 8 Noroeste 20 Oeste 0 -- -- 33
2019-04-12 20:00:00 22.4 8 Noroeste 30 Noroeste 0 -- -- 30
2019-04-12 19:00:00 24 17 Oeste 28 Oeste 0 -- -- 28
2019-04-12 18:00:00 24.4 9 Noroeste 29 Noroeste 0 -- -- 29
2019-04-12 17:00:00 24.5 10 Noroeste 25 Oeste 0 -- -- 29
2019-04-12 16:00:00 24.7 12 Oeste 41 Noroeste 0 -- -- 25
2019-04-12 15:00:00 22.9 13 Nordeste 45 Nordeste 0 -- -- 29
2019-04-12 14:00:00 22.2 9 Norte 25 Norte 0 -- -- 29
2019-04-12 13:00:00 21.1 10 Norte 26 Norte 0 -- -- 31
2019-04-12 12:00:00 20 11 Noroeste 26 Oeste 0 -- -- 41
2019-04-12 11:00:00 17.7 10 Noroeste 23 Sudoeste 0 -- -- 52
2019-04-12 10:00:00 16 9 Noroeste 22 Noroeste 0 -- -- 60
2019-04-12 09:00:00 12.6 8 Norte 23 Noroeste 0 -- -- 69
2019-04-12 08:00:00 11 12 Norte 21 Noroeste 0 -- -- 72
2019-04-12 07:00:00 11.2 9 Norte 18 Noroeste 0 -- -- 71
2019-04-12 06:00:00 11.8 10 Norte 19 Norte 0 -- -- 69
2019-04-12 05:00:00 12 10 Norte 17 Noroeste 0 -- -- 68
2019-04-12 04:00:00 13 6 Norte 10 Norte 0 -- -- 63
2019-04-12 03:00:00 13.1 4 Norte 16 Noroeste 0 -- -- 63
2019-04-12 02:00:00 14.4 9 Noroeste 17 Norte 0 -- -- 58
2019-04-12 01:00:00 14.1 9 Noroeste 16 Noroeste 0 -- -- 57
2019-04-12 00:00:00 14.4 7 Norte 14 Noroeste 0 -- -- 54
2019-04-11 23:00:00 15.4 -- -- -- -- 0 -- -- 51
2019-04-11 22:00:00 16.4 6 Norte 24 Noroeste 0 -- -- 46
2019-04-11 21:00:00 17.7 -- -- -- -- 0 -- -- 41
2019-04-11 20:00:00 19.3 11 Noroeste 27 Noroeste 0 -- -- 37
2019-04-11 19:00:00 21.2 11 Noroeste 37 Norte 0 -- -- 34
2019-04-11 18:00:00 22.2 15 Noroeste 35 Noroeste 0 -- -- 35
2019-04-11 17:00:00 22.9 17 Noroeste 40 Oeste 0 -- -- 34
2019-04-11 16:00:00 22.4 17 Noroeste 44 Oeste 0 -- -- 36
2019-04-11 15:00:00 21.8 19 Noroeste 35 Oeste 0 -- -- 38
2019-04-11 14:00:00 20.6 18 Noroeste 38 Oeste 0 -- -- 39
2019-04-11 13:00:00 19.6 15 Noroeste 29 Noroeste 0 -- -- 44
2019-04-11 12:00:00 16.7 9 Oeste 24 Oeste 0 -- -- 52
2019-04-11 11:00:00 15.3 11 Oeste 21 Oeste 0 -- -- 56
2019-04-11 10:00:00 14.3 6 Nordeste 15 Nordeste 0 -- -- 60
2019-04-11 09:00:00 12.3 3 Norte 17 Norte 0 -- -- 67
2019-04-11 08:00:00 11 6 Norte 16 Noroeste 0 -- -- 69
2019-04-11 07:00:00 10.9 6 Norte 17 Oeste 0 -- -- 70
2019-04-11 06:00:00 12 8 Noroeste 19 Oeste 0 -- -- 65
2019-04-11 05:00:00 12.4 9 Noroeste 23 Noroeste 0 -- -- 63
2019-04-11 04:00:00 13.2 12 Noroeste 23 Noroeste 0 -- -- 60
2019-04-11 03:00:00 13.1 8 Noroeste 21 Noroeste 0 -- -- 60
2019-04-11 02:00:00 12.9 10 Noroeste 19 Noroeste 0 -- -- 59
2019-04-11 01:00:00 13 9 Noroeste 18 Oeste 0 -- -- 62
2019-04-11 00:00:00 14.5 12 Oeste 22 Oeste 0 -- -- 59
2019-04-10 23:00:00 15.1 10 Noroeste 20 Oeste 0 -- -- 61
2019-04-10 22:00:00 16.2 9 Oeste 21 Oeste 0 -- -- 48
2019-04-10 21:00:00 16.9 4 Noroeste 22 Norte 0 -- -- 47
2019-04-10 20:00:00 18.5 10 Noroeste 22 Oeste 0 -- -- 46
2019-04-10 19:00:00 18 9 Noroeste 48 Oeste 0 -- -- 46
2019-04-10 18:00:00 19.7 13 Noroeste 43 Oeste 0 -- -- 43
2019-04-10 17:00:00 18.8 19 Noroeste 38 Oeste 0 -- -- 44
2019-04-10 16:00:00 18.3 15 Noroeste 37 Noroeste 0 -- -- 44
2019-04-10 15:00:00 18.1 17 Noroeste 38 Oeste 0 -- -- 45
2019-04-10 14:00:00 17.3 18 Noroeste 37 Noroeste 0 -- -- 48
2019-04-10 13:00:00 16.5 13 Noroeste 35 Oeste 0 -- -- 50
2019-04-10 12:00:00 15.6 14 Noroeste 31 Oeste 0 -- -- 54
2019-04-10 11:00:00 14.5 10 Noroeste 30 Noroeste 0 -- -- 63
2019-04-10 10:00:00 13.4 17 Noroeste 32 Noroeste 0 -- -- 64
2019-04-10 09:00:00 11.7 14 Noroeste 29 Oeste 0 -- -- 70
2019-04-10 08:00:00 10.4 10 Noroeste 22 Oeste 0 -- -- 76
2019-04-10 07:00:00 10.9 10 Noroeste 29 Noroeste 0 -- -- 76
2019-04-10 06:00:00 11.6 9 Noroeste 19 Noroeste 0 -- -- 73
2019-04-10 05:00:00 12.2 11 Noroeste 28 Noroeste 0 -- -- 74
2019-04-10 04:00:00 12.9 16 Oeste 31 Oeste 0 -- -- 71
2019-04-10 03:00:00 13.2 17 Noroeste 32 Noroeste 0 -- -- 70
2019-04-10 02:00:00 12.8 5 Noroeste 18 Oeste 0 -- -- 72
2019-04-10 01:00:00 13.2 7 Noroeste 16 Norte 0 -- -- 70
2019-04-10 00:00:00 13.4 11 Noroeste 25 Oeste 0 -- -- 67
2019-04-09 23:00:00 14.1 5 Norte 17 Norte 0 -- -- 64
2019-04-09 22:00:00 15 5 Noroeste 15 Oeste 0 -- -- 59
2019-04-09 21:00:00 16.1 12 Oeste 31 Oeste 0 -- -- 54
2019-04-09 20:00:00 18 14 Oeste 32 Noroeste 0 -- -- 49
2019-04-09 19:00:00 19.9 22 Oeste 40 Oeste 0 -- -- 44
2019-04-09 18:00:00 20.1 23 Oeste 41 Oeste 0 -- -- 43
2019-04-09 17:00:00 19.1 22 Oeste 40 Oeste 0 -- -- 45
2019-04-09 16:00:00 20.2 15 Oeste 35 Oeste 0 -- -- 46
2019-04-09 15:00:00 17.4 18 Oeste 38 Oeste 0 -- -- 54
2019-04-09 14:00:00 17.5 14 Noroeste 44 Oeste 0 -- -- 51
2019-04-09 13:00:00 16.3 11 Noroeste 37 Oeste 0 -- -- 52
2019-04-09 12:00:00 14.9 10 Noroeste 24 Noroeste 0 -- -- 63
2019-04-09 11:00:00 14.9 6 Noroeste 18 Noroeste 0 -- -- 65
2019-04-09 10:00:00 12.9 3 Norte 11 Oeste 0 -- -- 73
2019-04-09 09:00:00 11.6 3 Noroeste 20 Noroeste 0 -- -- 77
2019-04-09 08:00:00 10.9 7 Noroeste 17 Noroeste 0 -- -- 78
2019-04-09 07:00:00 11.2 6 Noroeste 20 Noroeste 0 -- -- 76
2019-04-09 06:00:00 11.3 12 Noroeste 23 Oeste 0 -- -- 74
2019-04-09 05:00:00 11.7 6 Noroeste 23 Oeste 0 -- -- 71
2019-04-09 04:00:00 12.6 7 Noroeste 24 Oeste 0 -- -- 70
2019-04-09 03:00:00 13.5 6 Noroeste 14 Noroeste 0 -- -- 69
2019-04-09 02:00:00 13.4 3 Norte 17 Noroeste 0 -- -- 70
2019-04-09 01:00:00 13.4 8 Noroeste 16 Oeste 0 -- -- 65
2019-04-09 00:00:00 14.4 9 Noroeste 22 Noroeste 0 -- -- 64
2019-04-08 23:00:00 15.1 9 Noroeste 18 Noroeste 0 -- -- 65
2019-04-08 22:00:00 15.8 9 Noroeste 27 Oeste 0 -- -- 65
2019-04-08 21:00:00 16.3 8 Noroeste 17 Oeste 0 -- -- 66
2019-04-08 20:00:00 16.9 10 Noroeste 24 Oeste 0 -- -- 68
2019-04-08 19:00:00 17.9 9 Noroeste 23 Noroeste 0 -- -- 67
2019-04-08 18:00:00 18.7 13 Sudoeste 26 Sudoeste 0 -- -- 55
2019-04-08 17:00:00 19.2 16 Oeste 35 Sudoeste 0 -- -- 55
2019-04-08 16:00:00 19.7 15 Sudoeste 35 Sudoeste 0 -- -- 54
2019-04-08 15:00:00 21.3 14 Oeste 30 Oeste 0 -- -- 52
2019-04-08 14:00:00 18.7 5 Sur 14 Nordeste 0.2 -- -- 59
2019-04-08 13:00:00 17.2 6 Nordeste 9 Norte 0 -- -- 63
2019-04-08 12:00:00 16.9 0 Calma 8 Nordeste 0 -- -- 67
2019-04-08 11:00:00 16.3 6 Sudeste 13 Sudeste 0 -- -- 73
2019-04-08 10:00:00 12.9 4 Oeste 10 Oeste 0 -- -- 92
2019-04-08 09:00:00 10.7 3 Norte 8 Nordeste 0 -- -- 95
2019-04-08 08:00:00 9.8 0 Calma 8 Norte 0 -- -- 93
2019-04-08 07:00:00 10.2 0 Calma 5 Norte 0 -- -- 94
2019-04-08 06:00:00 10.7 0 Calma 10 Noroeste 0 -- -- 94
2019-04-08 05:00:00 11 0 Calma 6 Oeste 0 -- -- 94
2019-04-08 04:00:00 11.4 4 Noroeste 8 Norte 0 -- -- 94
2019-04-08 03:00:00 11.8 3 Oeste 7 Noroeste 0 -- -- 94
2019-04-08 02:00:00 12.2 2 Nordeste 5 Sudoeste 0 -- -- 94
2019-04-08 01:00:00 12.5 0 Calma 5 Nordeste 0 -- -- 93
2019-04-08 00:00:00 12.8 3 Noroeste 9 Oeste 0 -- -- 93
2019-04-07 23:00:00 13.2 3 Noroeste 8 Noroeste 0.4 -- -- 92
2019-04-07 22:00:00 13.3 3 Oeste 11 Nordeste 0.2 -- -- 91
2019-04-07 21:00:00 13.7 6 Nordeste 11 Nordeste 0.8 -- -- 86
2019-04-07 20:00:00 14.7 8 Este 15 Este 0 -- -- 80
2019-04-07 19:00:00 15.7 7 Nordeste 17 Noroeste 0.2 -- -- 71
2019-04-07 18:00:00 17 8 Noroeste 24 Noroeste 0 -- -- 64
2019-04-07 17:00:00 16.7 11 Noroeste 30 Oeste 0 -- -- 64
2019-04-07 16:00:00 16.6 13 Noroeste 32 Oeste 0 -- -- 64
2019-04-07 15:00:00 15.6 17 Oeste 32 Oeste 0 -- -- 66
2019-04-07 14:00:00 14.7 11 Sur 26 Noroeste 0 -- -- 69
2019-04-07 13:00:00 14.2 9 Noroeste 22 Noroeste 0 -- -- 69
2019-04-07 12:00:00 12.6 6 Oeste 15 Noroeste 0 -- -- 77
2019-04-07 11:00:00 10.9 3 Nordeste 9 Oeste 0.2 -- -- 86
2019-04-07 10:00:00 10.5 6 Oeste 14 Oeste 0.2 -- -- 87
2019-04-07 09:00:00 10.1 2 Noroeste 12 Noroeste 0.4 -- -- 85
2019-04-07 08:00:00 10.1 4 Norte 16 Noroeste 0 -- -- 82
2019-04-07 07:00:00 10.3 4 Oeste 10 Sudeste 0.2 -- -- 81
2019-04-07 06:00:00 10.5 5 Oeste 10 Oeste 0 -- -- 78
2019-04-07 05:00:00 10.5 5 Nordeste 19 Oeste 0.4 -- -- 78
2019-04-07 04:00:00 11.6 5 Noroeste 15 Oeste 0 -- -- 72
2019-04-07 03:00:00 11.8 8 Oeste 18 Oeste 0 -- -- 70
2019-04-07 02:00:00 11.8 5 Noroeste 17 Oeste 0 -- -- 69
2019-04-07 01:00:00 11.8 5 Oeste 28 Noroeste 0 -- -- 69
2019-04-07 00:00:00 11.9 8 Noroeste 37 Oeste 0 -- -- 70
2019-04-06 23:00:00 11.5 13 Oeste 40 Oeste 0 -- -- 72
2019-04-06 22:00:00 9.9 8 Nordeste 17 Nordeste 0 -- -- 79
2019-04-06 21:00:00 10.9 7 Noroeste 22 Oeste 0.2 -- -- 79
2019-04-06 20:00:00 12.5 13 Noroeste 31 Oeste 0.2 -- -- 73
2019-04-06 19:00:00 13.7 2 Sudoeste 33 Oeste 0.4 -- -- 73
2019-04-06 18:00:00 13.4 18 Noroeste 42 Oeste 0 -- -- 68
2019-04-06 17:00:00 14.8 13 Oeste 35 Oeste 0 -- -- 63
2019-04-06 16:00:00 13.7 9 Sur 15 Sur 0 -- -- 64
2019-04-06 15:00:00 11.8 8 Noroeste 46 Oeste 0.2 -- -- 70
2019-04-06 14:00:00 13.1 14 Noroeste 39 Oeste 0 -- -- 66
2019-04-06 13:00:00 15.1 17 Sudoeste 37 Oeste 0 -- -- 55
2019-04-06 12:00:00 13.2 8 Oeste 26 Oeste 0 -- -- 63
2019-04-06 11:00:00 12 4 Oeste 12 Norte 0 -- -- 64
2019-04-06 10:00:00 9.9 4 Norte 11 Norte 0.2 -- -- 77
2019-04-06 09:00:00 9.6 3 Oeste 7 Oeste 0 -- -- 79
2019-04-06 08:00:00 9 0 Calma 9 Este 0 -- -- 76
2019-04-06 07:00:00 9.4 4 Norte 10 Nordeste 0 -- -- 73
2019-04-06 06:00:00 9.3 5 Nordeste 9 Nordeste 0 -- -- 72
2019-04-06 05:00:00 9.5 6 Nordeste 11 Nordeste 0 -- -- 71
2019-04-06 04:00:00 9.3 4 Norte 17 Noroeste 0 -- -- 70
2019-04-06 03:00:00 9.7 4 Noroeste 37 Oeste 0 -- -- 68
2019-04-06 02:00:00 10.1 14 Noroeste 37 Oeste 0 -- -- 65
2019-04-06 01:00:00 10.4 12 Noroeste 31 Oeste 0 -- -- 66
2019-04-06 00:00:00 10.8 7 Noroeste 27 Noroeste 0 -- -- 63
2019-04-05 23:00:00 11.2 10 Oeste 26 Oeste 0 -- -- 65
2019-04-05 22:00:00 11.1 7 Oeste 17 Oeste 0 -- -- 60
2019-04-05 21:00:00 12 13 Noroeste 35 Oeste 0 -- -- 57
2019-04-05 20:00:00 14.1 16 Oeste 42 Oeste 0 -- -- 49
2019-04-05 19:00:00 14.2 17 Noroeste 47 Oeste 0 -- -- 48
2019-04-05 18:00:00 15.3 15 Oeste 64 Oeste 0 -- -- 55
2019-04-05 17:00:00 15.9 34 Oeste 57 Oeste 0.2 -- -- 50
2019-04-05 16:00:00 15.4 17 Oeste 54 Oeste 0 -- -- 51
2019-04-05 15:00:00 13.6 23 Oeste 46 Oeste 0 -- -- 63
2019-04-05 14:00:00 10.8 6 Norte 14 Nordeste 1 -- -- 90
2019-04-05 13:00:00 11 5 Sudoeste 12 Noroeste 2.8 -- -- 87
2019-04-05 12:00:00 11.3 5 Sur 11 Este 0.2 -- -- 88
2019-04-05 11:00:00 10.6 5 Oeste 17 Este 0 -- -- 89
2019-04-05 10:00:00 9.8 3 Noroeste 14 Noroeste 2 -- -- 88
2019-04-05 09:00:00 10.7 8 Norte 9 Norte 1 -- -- 77
2019-04-05 08:00:00 11.4 6 Sudeste 9 Sudeste 0 -- -- 61
2019-04-05 07:00:00 11.5 5 Este 11 Este 0 -- -- 59
2019-04-05 06:00:00 12 3 Oeste 19 Sur 0 -- -- 56
2019-04-05 05:00:00 11.9 -- -- -- -- 0 -- -- 57
2019-04-05 04:00:00 11.3 7 Este 13 Noroeste 0 -- -- 57
2019-04-05 03:00:00 11.5 5 Noroeste 16 Oeste 0 -- -- 55
2019-04-05 02:00:00 12.1 3 Noroeste 18 Oeste 0 -- -- 52
2019-04-05 01:00:00 12.1 6 Noroeste 17 Noroeste 0 -- -- 49
2019-04-05 00:00:00 12.4 6 Oeste 18 Oeste 0 -- -- 51
2019-04-04 23:00:00 13.2 9 Noroeste 24 Oeste 0 -- -- 47
2019-04-04 22:00:00 14.1 12 Noroeste 28 Oeste 0 -- -- 45
2019-04-04 21:00:00 15.6 7 Noroeste 19 Sur 0 -- -- 47
2019-04-04 20:00:00 16.6 16 Sudeste 28 Sur 0 -- -- 52
2019-04-04 19:00:00 17.9 20 Sur 31 Sur 0 -- -- 46
2019-04-04 18:00:00 20.3 11 Sur 26 Oeste 0 -- -- 38
2019-04-04 17:00:00 22.6 14 Noroeste 27 Noroeste 0 -- -- 29
2019-04-04 16:00:00 22.3 8 Noroeste 22 Sudoeste 0 -- -- 29
2019-04-04 15:00:00 21.2 6 Noroeste 25 Norte 0 -- -- 29
2019-04-04 14:00:00 20.3 12 Noroeste 24 Norte 0 -- -- 31
2019-04-04 13:00:00 19.1 8 Noroeste 30 Noroeste 0 -- -- 31
2019-04-04 12:00:00 16.9 8 Norte 20 Nordeste 0 -- -- 35
2019-04-04 11:00:00 14.7 6 Norte 21 Noroeste 0 -- -- 41
2019-04-04 10:00:00 12.3 9 Norte 20 Norte 0 -- -- 45
2019-04-04 09:00:00 10.8 8 Noroeste 21 Noroeste 0 -- -- 52
2019-04-04 08:00:00 10.1 12 Noroeste 24 Oeste 0 -- -- 55
2019-04-04 07:00:00 10.4 9 Noroeste 23 Noroeste 0 -- -- 59
2019-04-04 06:00:00 10.9 8 Noroeste 19 Oeste 0 -- -- 60
2019-04-04 05:00:00 11.5 5 Norte 16 Noroeste 0 -- -- 62
2019-04-04 04:00:00 12.2 6 Norte 15 Noroeste 0 -- -- 62
2019-04-04 03:00:00 13 6 Norte 28 Oeste 0 -- -- 60
2019-04-04 02:00:00 13.7 14 Noroeste 25 Oeste 0 -- -- 58
2019-04-04 01:00:00 13.8 9 Noroeste 21 Oeste 0 -- -- 57
2019-04-04 00:00:00 14.8 7 Noroeste 19 Oeste 0 -- -- 52
2019-04-03 23:00:00 16.4 6 Noroeste 14 Norte 0 -- -- 47
2019-04-03 22:00:00 17.4 6 Norte 23 Oeste 0 -- -- 44
2019-04-03 21:00:00 18.8 14 Noroeste 36 Oeste 0 -- -- 41
2019-04-03 20:00:00 21.2 19 Noroeste 44 Oeste 0 -- -- 36
2019-04-03 19:00:00 23.1 21 Noroeste 42 Oeste 0 -- -- 35
2019-04-03 18:00:00 24.5 17 Noroeste 37 Oeste 0 -- -- 32
2019-04-03 17:00:00 24.2 16 Noroeste 37 Oeste 0 -- -- 37
2019-04-03 16:00:00 24.2 11 Noroeste 29 Oeste 0 -- -- 41
2019-04-03 15:00:00 23.2 7 Noroeste 24 Noroeste 0 -- -- 44
2019-04-03 14:00:00 23 7 Noroeste 25 Oeste 0 -- -- 44
2019-04-03 13:00:00 21.4 12 Noroeste 23 Oeste 0 -- -- 43
2019-04-03 12:00:00 20 8 Noroeste 20 Oeste 0 -- -- 53
2019-04-03 11:00:00 17.5 9 Noroeste 16 Noroeste 0 -- -- 61
2019-04-03 10:00:00 14.2 2 Sudoeste 12 Norte 0 -- -- 75
2019-04-03 09:00:00 11.9 -- -- -- -- 0 -- -- 78
2019-04-03 08:00:00 11.1 4 Noroeste 13 Noroeste 0 -- -- 80
2019-04-03 07:00:00 11.4 3 Noroeste 9 Noroeste 0 -- -- 80
2019-04-03 06:00:00 11.9 2 Nordeste 9 Norte 0 -- -- 79
2019-04-03 05:00:00 12.4 2 Noroeste 11 Norte 0 -- -- 77
2019-04-03 04:00:00 13.2 3 Norte 10 Noroeste 0 -- -- 73
2019-04-03 03:00:00 13.5 4 Norte 15 Norte 0 -- -- 72
2019-04-03 02:00:00 14.6 6 Norte 16 Noroeste 0 -- -- 69
2019-04-03 01:00:00 15 8 Noroeste 17 Norte 0 -- -- 69
2019-04-03 00:00:00 15.9 5 Norte 10 Norte 0 -- -- 64
2019-04-02 23:00:00 16.6 4 Noroeste 9 Noroeste 0 -- -- 63
2019-04-02 22:00:00 17.9 5 Norte 12 Norte 0 -- -- 58
2019-04-02 21:00:00 18.7 5 Noroeste 14 Noroeste 0 -- -- 55
2019-04-02 20:00:00 20.6 6 Noroeste 19 Norte 0 -- -- 45
2019-04-02 19:00:00 21.5 10 Norte 17 Noroeste 0 -- -- 45
2019-04-02 18:00:00 23.2 12 Oeste 23 Oeste 0 -- -- 37
2019-04-02 17:00:00 23.7 9 Noroeste 21 Oeste 0 -- -- 39
2019-04-02 16:00:00 23.2 6 Noroeste 21 Oeste 0 -- -- 39
2019-04-02 15:00:00 21.7 5 Sudoeste 13 Nordeste 0 -- -- 41
2019-04-02 14:00:00 20.4 3 Norte 13 Sur 0 -- -- 44
2019-04-02 13:00:00 20.1 5 Sur 14 Sudeste 0 -- -- 44
2019-04-02 12:00:00 16.9 3 Oeste 7 Oeste 0 -- -- 65
2019-04-02 11:00:00 14.1 2 Este 6 Sur 0 -- -- 82
2019-04-02 10:00:00 10.3 0 Calma 8 Nordeste 0 -- -- 90
2019-04-02 09:00:00 9 3 Nordeste 5 Nordeste 0 -- -- 92
2019-04-02 08:00:00 8.6 2 Este 5 Noroeste 0 -- -- 91
2019-04-02 07:00:00 9.1 2 Norte 5 Norte 0 -- -- 91
2019-04-02 06:00:00 9.3 4 Norte 8 Nordeste 0 -- -- 89
2019-04-02 05:00:00 10 0 Calma 6 Norte 0 -- -- 89
2019-04-02 04:00:00 10.5 2 Norte 9 Norte 0 -- -- 89
2019-04-02 03:00:00 10.9 3 Noroeste 9 Norte 0 -- -- 88
2019-04-02 02:00:00 11.5 0 Calma 6 Nordeste 0 -- -- 87
2019-04-02 01:00:00 12.3 3 Noroeste 6 Oeste 0 -- -- 84
2019-04-02 00:00:00 13.4 3 Norte 7 Norte 0 -- -- 82
2019-04-01 23:00:00 13.7 0 Calma 10 Nordeste 0 -- -- 80
2019-04-01 22:00:00 14.7 3 Sudoeste 8 Sur 0 -- -- 80
2019-04-01 21:00:00 15.6 5 Sudoeste 11 Sur 0 -- -- 77
2019-04-01 20:00:00 16.8 5 Sur 12 Sur 0 -- -- 72
2019-04-01 19:00:00 17.4 11 Sur 16 Sudeste 0 -- -- 68
2019-04-01 18:00:00 17.6 11 Sudeste 19 Sudeste 0 -- -- 69
2019-04-01 17:00:00 18.2 7 Sur 21 Sur 0 -- -- 62
2019-04-01 16:00:00 17.2 9 Sur 17 Sudeste 0 -- -- 67
2019-04-01 15:00:00 16.1 13 Sur 18 Sur 0 -- -- 71
2019-04-01 14:00:00 15.5 12 Sur 20 Sur 0 -- -- 76
2019-04-01 13:00:00 16.1 14 Sur 24 Sur 0.2 -- -- 74
2019-04-01 12:00:00 15 3 Sur 8 Sur 0 -- -- 83
2019-04-01 11:00:00 13.2 2 Sudeste 4 Sudeste 0 -- -- 93
2019-04-01 10:00:00 12.4 2 Nordeste 5 Sur 0 -- -- 95
2019-04-01 09:00:00 11.5 2 Nordeste 9 Oeste 0 -- -- 95
2019-04-01 08:00:00 11.1 5 Nordeste 8 Nordeste 0 -- -- 95
2019-04-01 07:00:00 11.1 6 Nordeste 9 Nordeste 0 -- -- 94
2019-04-01 06:00:00 11.1 0 Calma 8 Noroeste 0 -- -- 94
2019-04-01 05:00:00 11.2 4 Noroeste 6 Norte 0 -- -- 94
2019-04-01 04:00:00 11.9 2 Noroeste 7 Noroeste 0 -- -- 92
2019-04-01 03:00:00 12.3 5 Nordeste 9 Este 0 -- -- 90
2019-04-01 02:00:00 12.8 2 Nordeste 9 Oeste 0 -- -- 89
2019-04-01 01:00:00 13 4 Oeste 9 Sudoeste 0 -- -- 88
2019-04-01 00:00:00 13.3 4 Este 14 Norte 0.2 -- -- 87
2019-03-31 23:00:00 13.3 3 Noroeste 18 Oeste 0 -- -- 85
2019-03-31 22:00:00 13.8 8 Noroeste 19 Oeste 0.2 -- -- 84
2019-03-31 21:00:00 14.4 2 Nordeste 15 Sudeste 0.8 -- -- 88
2019-03-31 20:00:00 14.9 12 Sudeste 24 Sur 0.2 -- -- 84
2019-03-31 19:00:00 15.5 21 Sur 30 Sur 0.6 -- -- 82
2019-03-31 18:00:00 19.3 12 Sudeste 18 Sur 0 -- -- 63
2019-03-31 17:00:00 20.5 11 Sur 16 Sur 0 -- -- 59
2019-03-31 16:00:00 20.1 9 Sur 15 Sur 0 -- -- 59
2019-03-31 15:00:00 18.7 12 Sur 19 Sur 0 -- -- 68
2019-03-31 14:00:00 17.7 7 Sur 14 Sudeste 0 -- -- 69
2019-03-31 13:00:00 16 2 Sur 7 Sudoeste 0 -- -- 79
2019-03-31 12:00:00 14.2 3 Oeste 8 Oeste 0 -- -- 94
2019-03-31 11:00:00 13.1 0 Calma 5 Sudoeste 0 -- -- 96
2019-03-31 10:00:00 12.5 0 Calma 3 Sudeste 0.4 -- -- 96
2019-03-31 09:00:00 12.1 2 Este 5 Este 0.6 -- -- 95
2019-03-31 08:00:00 12.2 0 Calma 2 Sudeste 0.6 -- -- 95
2019-03-31 07:00:00 12.1 2 Este 4 Sudeste 1.4 -- -- 95
2019-03-31 06:00:00 12.3 2 Este 4 Este 2.4 -- -- 94
2019-03-31 05:00:00 12.5 3 Sudeste 5 Oeste 0.4 -- -- 93
2019-03-31 03:00:00 12.7 8 Sur 13 Sur 1 -- -- 92
2019-03-31 01:00:00 13 6 Sur 14 Sur 0.2 -- -- 90
2019-03-31 00:00:00 13.3 10 Sur 22 Sur 0 -- -- 86
2019-03-30 23:00:00 13.6 8 Sudeste 17 Sur 0 -- -- 81
2019-03-30 22:00:00 13.5 8 Sudeste 20 Sur 0 -- -- 81
2019-03-30 21:00:00 13.6 13 Sur 19 Sur 0 -- -- 79
2019-03-30 20:00:00 13.8 9 Sudeste 17 Sudeste 0 -- -- 77
2019-03-30 19:00:00 14.3 14 Sudeste 30 Sudeste 0 -- -- 74
2019-03-30 18:00:00 14.6 18 Sudeste 31 Sudeste 0 -- -- 71
2019-03-30 17:00:00 14.9 22 Sudeste 38 Sudeste 0 -- -- 68
2019-03-30 16:00:00 16.2 29 Sudeste 41 Sudeste 0 -- -- 61
2019-03-30 15:00:00 16.2 27 Sudeste 50 Sur 0 -- -- 59
2019-03-30 14:00:00 17.3 29 Sudeste 45 Sudeste 0 -- -- 55
2019-03-30 13:00:00 16.7 26 Sur 40 Sudeste 0 -- -- 55
2019-03-30 12:00:00 16.4 27 Sur 41 Sur 0 -- -- 59
2019-03-30 11:00:00 15.4 22 Sudeste 37 Sur 0 -- -- 62
2019-03-30 10:00:00 14.2 23 Sur 33 Sur 0 -- -- 70
2019-03-30 09:00:00 13.2 14 Sur 23 Sur 0 -- -- 75
2019-03-30 08:00:00 12.4 13 Sudeste 24 Sudeste 0 -- -- 78
2019-03-30 07:00:00 12.7 18 Sudeste 35 Sur 0 -- -- 76
2019-03-30 06:00:00 12.7 15 Sudeste 28 Sur 0 -- -- 78
2019-03-30 05:00:00 12.9 17 Sudeste 27 Sudeste 0 -- -- 76
2019-03-30 04:00:00 12.8 -- -- -- -- 0 -- -- 77
2019-03-30 03:00:00 13 19 Sudeste 31 Sudeste 0 -- -- 79
2019-03-30 02:00:00 12.8 14 Sudeste 33 Sudeste 0 -- -- 80
2019-03-30 01:00:00 13.3 20 Sudeste 32 Sudeste 0 -- -- 78
2019-03-30 00:00:00 13.4 23 Sudeste 35 Sur 0 -- -- 77
2019-03-29 23:00:00 13.5 20 Sudeste 35 Sudeste 0 -- -- 75
2019-03-29 22:00:00 13.5 13 Sudeste 24 Sudeste 0 -- -- 76
2019-03-29 21:00:00 13.5 13 Sur 21 Sur 0 -- -- 74
2019-03-29 20:00:00 13.7 13 Sudeste 23 Sur 0 -- -- 72
2019-03-29 19:00:00 14.4 17 Sur 27 Sudeste 0 -- -- 68
2019-03-29 18:00:00 14.9 17 Sudeste 30 Sudeste 0 -- -- 64
2019-03-29 17:00:00 15.1 22 Sudeste 35 Sudeste 0 -- -- 60
2019-03-29 16:00:00 15.6 22 Sudeste 42 Sudeste 0 -- -- 55
2019-03-29 15:00:00 16.5 24 Sudeste 42 Sudeste 0 -- -- 53
2019-03-29 14:00:00 15.3 25 Sudeste 38 Sudeste 0 -- -- 58
2019-03-29 13:00:00 15.2 25 Sudeste 40 Sudeste 0 -- -- 57
2019-03-29 12:00:00 16.4 27 Sudeste 43 Sudeste 0 -- -- 57
2019-03-29 11:00:00 14.9 25 Sur 40 Sudeste 0 -- -- 63
2019-03-29 10:00:00 13.8 21 Sudeste 36 Sur 0 -- -- 67
2019-03-29 09:00:00 12.9 14 Sur 21 Sur 0 -- -- 67
2019-03-29 08:00:00 10.8 9 Sudeste 15 Sudeste 0 -- -- 69
2019-03-29 07:00:00 9.8 10 Este 18 Este 0 -- -- 70
2019-03-29 06:00:00 9.8 10 Este 15 Este 0 -- -- 69
2019-03-29 05:00:00 10.1 10 Este 15 Este 0 -- -- 69
2019-03-29 04:00:00 10.5 12 Sudeste 18 Sudeste 0 -- -- 69
2019-03-29 03:00:00 11.2 11 Sudeste 16 Sudeste 0 -- -- 71
2019-03-29 02:00:00 11 13 Sudeste 19 Sur 0 -- -- 74
2019-03-29 01:00:00 11.5 12 Sudeste 18 Sudeste 0 -- -- 75
2019-03-29 00:00:00 12.5 14 Sudeste 28 Sur 0 -- -- 74
2019-03-28 23:00:00 13.2 17 Sudeste 30 Sudeste 0 -- -- 72
2019-03-28 22:00:00 13.4 13 Sudeste 24 Sudeste 0 -- -- 68
2019-03-28 21:00:00 12.8 8 Sudeste 23 Este 0 -- -- 67
2019-03-28 20:00:00 13.5 21 Sudeste 36 Sudeste 0 -- -- 62
2019-03-28 19:00:00 14.6 19 Sudeste 44 Sudeste 0 -- -- 50
2019-03-28 18:00:00 15.5 27 Sudeste 46 Sudeste 0 -- -- 43
2019-03-28 17:00:00 16.3 35 Sudeste 48 Sudeste 0 -- -- 36
2019-03-28 16:00:00 17.2 29 Sudeste 53 Sudeste 0 -- -- 27
2019-03-28 15:00:00 17.3 33 Sudeste 57 Sudeste 0 -- -- 33
2019-03-28 14:00:00 17.9 31 Sudeste 50 Sudeste 0 -- -- 25
2019-03-28 13:00:00 17.6 28 Sudeste 48 Este 0 -- -- 41
2019-03-28 12:00:00 17 27 Sudeste 44 Sudeste 0 -- -- 43
2019-03-28 11:00:00 15.7 32 Sudeste 44 Sudeste 0 -- -- 48
2019-03-28 10:00:00 14.4 26 Sudeste 39 Sudeste 0 -- -- 52
2019-03-28 09:00:00 13.5 17 Sudeste 26 Sudeste 0 -- -- 55
2019-03-28 08:00:00 11.9 8 Sudeste 18 Este 0 -- -- 65
2019-03-28 07:00:00 11.7 12 Sudeste 22 Sudeste 0 -- -- 67
2019-03-28 06:00:00 12.1 13 Sudeste 27 Este 0 -- -- 67
2019-03-28 05:00:00 11.9 15 Sudeste 22 Sur 0 -- -- 69
2019-03-28 04:00:00 11.4 12 Sudeste 16 Sudeste 0 -- -- 71
2019-03-28 03:00:00 12.2 10 Sudeste 41 Sudeste 0 -- -- 64
2019-03-28 02:00:00 13.2 19 Sudeste 32 Sudeste 0 -- -- 67
2019-03-28 01:00:00 13.3 15 Sudeste 32 Sudeste 0 -- -- 72
2019-03-28 00:00:00 13.3 25 Sudeste 33 Sudeste 0 -- -- 74
2019-03-27 23:00:00 13.8 22 Sudeste 32 Sudeste 0 -- -- 68
2019-03-27 22:00:00 13.6 19 Sudeste 35 Sudeste 0 -- -- 70
2019-03-27 21:00:00 13.7 17 Sudeste 26 Sur 0 -- -- 68
2019-03-27 20:00:00 13.5 15 Sur 30 Sur 0 -- -- 64
2019-03-27 19:00:00 14.4 14 Sur 37 Sudeste 0 -- -- 60
2019-03-27 18:00:00 15.6 21 Sudeste 38 Sudeste 0 -- -- 54
2019-03-27 17:00:00 16.2 26 Sudeste 51 Sudeste 0 -- -- 48
2019-03-27 16:00:00 16.9 28 Sudeste 47 Sudeste 0 -- -- 45
2019-03-27 15:00:00 17.4 29 Sudeste 44 Sudeste 0 -- -- 41
2019-03-27 14:00:00 18.2 27 Sur 46 Sur 0 -- -- 38
2019-03-27 13:00:00 18.3 30 Sur 45 Sur 0 -- -- 36
2019-03-27 12:00:00 17.1 22 Sudeste 43 Sudeste 0 -- -- 36
2019-03-27 11:00:00 16.4 21 Sudeste 36 Sudeste 0 -- -- 41
2019-03-27 10:00:00 15.2 21 Sudeste 33 Sudeste 0 -- -- 53
2019-03-27 09:00:00 14.1 21 Sudeste 39 Sur 0 -- -- 56
2019-03-27 08:00:00 12.8 24 Sur 36 Sur 0 -- -- 56
2019-03-27 07:00:00 12.5 21 Sudeste 38 Sur 0 -- -- 55
2019-03-27 06:00:00 12.6 24 Sur 37 Sur 0 -- -- 53
2019-03-27 05:00:00 12.4 17 Sudeste 40 Sur 0 -- -- 55
2019-03-27 04:00:00 12.3 19 Sudeste 37 Sudeste 0 -- -- 66
2019-03-27 03:00:00 12.9 23 Sudeste 43 Sur 0 -- -- 66
2019-03-27 02:00:00 13.9 27 Sudeste 42 Sudeste 0 -- -- 61
2019-03-27 01:00:00 14.6 27 Sudeste 39 Sudeste 0 -- -- 65
2019-03-27 00:00:00 14.6 18 Sur 31 Sur 0 -- -- 60
2019-03-26 23:00:00 14.8 21 Sudeste 37 Sudeste 0 -- -- 69
2019-03-26 22:00:00 15.1 19 Sudeste 32 Sur 0 -- -- 72
2019-03-26 21:00:00 15.6 18 Sudeste 31 Sudeste 0 -- -- 70
2019-03-26 20:00:00 15.7 20 Sur 29 Sur 0 -- -- 68
2019-03-26 19:00:00 16.3 17 Sudeste 36 Sudeste 0 -- -- 63
2019-03-26 18:00:00 17.3 23 Sudeste 39 Sur 0 -- -- 56
2019-03-26 17:00:00 18.2 27 Sudeste 49 Sur 0 -- -- 54
2019-03-26 16:00:00 18.1 25 Sur 46 Sudeste 0 -- -- 53
2019-03-26 15:00:00 19.6 26 Sudeste 44 Sur 0 -- -- 42
2019-03-26 14:00:00 20.7 33 Sur 51 Sur 0 -- -- 39
2019-03-26 13:00:00 21.3 28 Sudeste 55 Sur 0 -- -- 41
2019-03-26 12:00:00 21 26 Sur 46 Sur 0 -- -- 42
2019-03-26 11:00:00 19.6 24 Sudeste 37 Sudeste 0 -- -- 44
2019-03-26 10:00:00 17.1 13 Sudeste 19 Sur 0 -- -- 58
2019-03-26 09:00:00 13.5 7 Este 15 Este 0 -- -- 69
2019-03-26 08:00:00 11.7 9 Este 17 Este 0 -- -- 76
2019-03-26 07:00:00 11.6 8 Nordeste 15 Nordeste 0 -- -- 77
2019-03-26 06:00:00 11.9 10 Nordeste 18 Nordeste 0 -- -- 78
2019-03-26 05:00:00 11.9 11 Este 16 Este 0 -- -- 78
2019-03-26 04:00:00 12.1 11 Este 15 Este 0 -- -- 78
2019-03-26 03:00:00 12.1 9 Este 13 Este 0 -- -- 78
2019-03-26 02:00:00 12.1 11 Este 14 Este 0 -- -- 76
2019-03-26 01:00:00 12.3 10 Nordeste 15 Este 0 -- -- 75
2019-03-26 00:00:00 12.7 9 Nordeste 12 Nordeste 0 -- -- 73
2019-03-25 23:00:00 13.7 6 Nordeste 9 Sudeste 0 -- -- 70
2019-03-25 22:00:00 14.4 6 Este 10 Sudeste 0 -- -- 69
2019-03-25 21:00:00 15.2 4 Sudeste 9 Sudeste 0 -- -- 65
2019-03-25 20:00:00 15.9 8 Sudeste 21 Sur 0 -- -- 62
2019-03-25 19:00:00 17.8 19 Sur 35 Sur 0 -- -- 55
2019-03-25 18:00:00 19.3 20 Sur 41 Sudeste 0 -- -- 47
2019-03-25 17:00:00 20 24 Sudeste 42 Sudeste 0 -- -- 46
2019-03-25 16:00:00 20.4 26 Sudeste 44 Sur 0 -- -- 46
2019-03-25 15:00:00 20.2 27 Sudeste 50 Sudeste 0 -- -- 43
2019-03-25 14:00:00 20.6 26 Sudeste 39 Sudeste 0 -- -- 42
2019-03-25 13:00:00 20.6 24 Sudeste 39 Sudeste 0 -- -- 44
2019-03-25 12:00:00 20.4 -- -- -- -- 0 -- -- 45
2019-03-25 11:00:00 18.5 16 Sur 25 Sur 0 -- -- 53
2019-03-25 10:00:00 16.3 5 Sudeste 10 Sudeste 0 -- -- 66
2019-03-25 09:00:00 12.1 0 Calma 5 Norte 0 -- -- 84
2019-03-25 08:00:00 9.7 0 Calma 7 Norte 0 -- -- 86
2019-03-25 07:00:00 9.3 0 Calma 6 Norte 0 -- -- 86
2019-03-25 06:00:00 9.7 2 Este 5 Noroeste 0 -- -- 86
2019-03-25 05:00:00 9.6 0 Calma 3 Nordeste 0 -- -- 85
2019-03-25 04:00:00 9.7 0 Calma 8 Norte 0 -- -- 85
2019-03-25 03:00:00 10 3 Noroeste 4 Noroeste 0 -- -- 84
2019-03-25 02:00:00 10.3 2 Nordeste 6 Nordeste 0 -- -- 82
2019-03-25 01:00:00 11.3 0 Calma 8 Norte 0 -- -- 79
2019-03-25 00:00:00 11.9 3 Norte 10 Nordeste 0 -- -- 78